createdAt,value
2018-04-06T00:02:05.072Z,101309.06
2018-04-06T00:04:33.988Z,101317.40
2018-04-06T00:07:02.951Z,101317.55
2018-04-06T00:09:32.519Z,101321.48
2018-04-06T00:12:03.090Z,101321.97
2018-04-06T00:14:31.984Z,101315.53
2018-04-06T00:17:01.268Z,101309.02
2018-04-06T00:19:30.170Z,101310.73
2018-04-06T00:21:59.113Z,101308.52
2018-04-06T00:24:28.493Z,101318.10
2018-04-06T00:26:57.390Z,101314.61
2018-04-06T00:29:26.259Z,101310.27
2018-04-06T00:31:55.719Z,101316.47
2018-04-06T00:34:25.610Z,101307.76
2018-04-06T00:36:54.839Z,101307.31
2018-04-06T00:39:25.476Z,101304.27
2018-04-06T00:41:55.080Z,101304.27
2018-04-06T00:44:23.931Z,101312.55
2018-04-06T00:46:52.776Z,101312.11
2018-04-06T00:49:21.670Z,101305.14
2018-04-06T00:51:50.897Z,101305.63
2018-04-06T00:54:19.880Z,101305.23
2018-04-06T00:56:48.831Z,101308.35
2018-04-06T00:59:18.231Z,101299.20
2018-04-06T01:01:47.209Z,101301.87
2018-04-06T01:04:16.096Z,101301.98
2018-04-06T01:06:45.441Z,101295.55
2018-04-06T01:09:14.434Z,101290.98
2018-04-06T01:11:43.392Z,101281.07
2018-04-06T01:14:12.741Z,101289.52
2018-04-06T01:16:41.644Z,101291.80
2018-04-06T01:19:10.840Z,101297.92
2018-04-06T01:21:40.019Z,101293.22
2018-04-06T01:24:08.868Z,101292.90
2018-04-06T01:26:37.790Z,101283.77
2018-04-06T01:29:06.656Z,101285.98
2018-04-06T01:31:35.588Z,101284.34
2018-04-06T01:34:05.363Z,101285.75
2018-04-06T01:36:34.428Z,101288.37
2018-04-06T01:39:03.375Z,101288.81
2018-04-06T01:41:32.637Z,101288.38
2018-04-06T01:44:01.544Z,101294.09
2018-04-06T01:46:30.382Z,101296.20
2018-04-06T01:48:59.603Z,101302.34
2018-04-06T01:51:28.351Z,101305.41
2018-04-06T01:53:57.047Z,101297.61
2018-04-06T01:56:26.190Z,101285.95
2018-04-06T01:58:54.876Z,101284.27
2018-04-06T02:01:23.575Z,101285.15
2018-04-06T02:03:52.924Z,101285.91
2018-04-06T02:06:21.790Z,101287.31
2018-04-06T02:08:50.635Z,101291.72
2018-04-06T02:11:20.020Z,101283.41
2018-04-06T02:13:48.875Z,101279.97
2018-04-06T02:16:17.731Z,101278.66
2018-04-06T02:18:46.973Z,101281.37
2018-04-06T02:21:15.812Z,101281.42
2018-04-06T02:23:44.575Z,101274.08
2018-04-06T02:26:13.955Z,101269.78
2018-04-06T02:28:42.650Z,101268.13
2018-04-06T02:31:11.355Z,101277.31
2018-04-06T02:33:40.839Z,101281.63
2018-04-06T02:36:09.583Z,101276.88
2018-04-06T02:38:38.335Z,101282.58
2018-04-06T02:41:07.482Z,101282.20
2018-04-06T02:43:36.315Z,101282.59
2018-04-06T02:46:05.579Z,101271.76
2018-04-06T02:48:34.831Z,101274.48
2018-04-06T02:51:03.565Z,101279.74
2018-04-06T02:53:32.281Z,101283.27
2018-04-06T02:56:01.360Z,101283.31
2018-04-06T02:58:30.133Z,101287.70
2018-04-06T03:00:58.840Z,101280.80
2018-04-06T03:03:28.039Z,101291.33
2018-04-06T03:05:56.755Z,101291.39
2018-04-06T03:08:25.446Z,101287.51
2018-04-06T03:10:54.588Z,101275.82
2018-04-06T03:13:23.276Z,101285.00
2018-04-06T03:15:52.018Z,101287.22
2018-04-06T03:18:21.038Z,101288.09
2018-04-06T03:20:49.702Z,101294.27
2018-04-06T03:23:18.562Z,101299.49
2018-04-06T03:25:47.705Z,101292.14
2018-04-06T03:28:16.409Z,101294.79
2018-04-06T03:30:45.090Z,101304.80
2018-04-06T03:33:14.228Z,101304.31
2018-04-06T03:35:42.935Z,101302.62
2018-04-06T03:38:11.631Z,101299.19
2018-04-06T03:40:40.936Z,101303.19
2018-04-06T03:43:09.663Z,101306.19
2018-04-06T03:45:38.376Z,101299.28
2018-04-06T03:48:07.525Z,101306.27
2018-04-06T03:50:36.364Z,101304.97
2018-04-06T03:53:05.105Z,101304.49
2018-04-06T03:55:35.466Z,101305.89
2018-04-06T03:58:04.815Z,101301.14
2018-04-06T04:00:33.551Z,101301.58
2018-04-06T04:03:02.757Z,101294.23
2018-04-06T04:05:31.466Z,101296.84
2018-04-06T04:08:00.228Z,101292.06
2018-04-06T04:10:29.302Z,101289.89
2018-04-06T04:12:58.048Z,101286.02
2018-04-06T04:15:26.778Z,101287.72
2018-04-06T04:17:55.936Z,101279.41
2018-04-06T04:20:24.663Z,101278.50
2018-04-06T04:22:53.380Z,101271.63
2018-04-06T04:25:22.454Z,101278.20
2018-04-06T04:27:51.165Z,101276.11
2018-04-06T04:30:19.886Z,101274.41
2018-04-06T04:35:16.523Z,101268.47
2018-04-06T04:37:45.232Z,101271.46
2018-04-06T04:40:15.441Z,101264.90
2018-04-06T04:42:44.155Z,101258.68
2018-04-06T04:45:43.327Z,101261.64
2018-04-06T04:48:12.448Z,101264.24
2018-04-06T04:50:41.220Z,101269.46
2018-04-06T04:53:09.915Z,101264.68
2018-04-06T04:55:39.079Z,101259.06
2018-04-06T04:58:07.843Z,101262.51
2018-04-06T05:00:36.626Z,101270.81
2018-04-06T05:03:05.663Z,101270.33
2018-04-06T05:05:34.413Z,101267.67
2018-04-06T05:08:03.651Z,101263.28
2018-04-06T05:10:32.896Z,101267.06
2018-04-06T05:13:01.914Z,101272.18
2018-04-06T05:17:54.534Z,101269.53
2018-04-06T05:20:23.258Z,101271.22
2018-04-06T05:22:52.011Z,101268.34
2018-04-06T05:25:21.047Z,101263.11
2018-04-06T05:27:49.990Z,101267.84
2018-04-06T05:30:18.835Z,101268.23
2018-04-06T05:32:47.643Z,101261.62
2018-04-06T05:35:16.422Z,101266.25
2018-04-06T05:37:45.400Z,101260.98
2018-04-06T05:40:14.595Z,101262.14
2018-04-06T05:42:43.311Z,101265.91
2018-04-06T05:45:12.051Z,101267.16
2018-04-06T05:47:41.369Z,101268.02
2018-04-06T05:50:10.097Z,101270.11
2018-04-06T05:52:38.915Z,101269.62
2018-04-06T05:55:07.911Z,101270.25
2018-04-06T05:57:36.645Z,101271.02
2018-04-06T06:00:06.418Z,101263.99
2018-04-06T06:02:35.454Z,101265.97
2018-04-06T06:05:04.364Z,101269.67
2018-04-06T06:07:33.419Z,101274.34
2018-04-06T06:10:03.640Z,101271.94
2018-04-06T06:12:32.366Z,101267.80
2018-04-06T06:15:01.720Z,101275.47
2018-04-06T06:17:30.965Z,101277.37
2018-04-06T06:19:59.710Z,101279.25
2018-04-06T06:22:28.498Z,101284.84
2018-04-06T06:25:00.506Z,101283.80
2018-04-06T06:27:29.321Z,101283.01
2018-04-06T06:29:58.006Z,101285.57
2018-04-06T06:32:27.140Z,101285.49
2018-04-06T06:34:55.816Z,101284.08
2018-04-06T06:37:24.566Z,101286.03
2018-04-06T06:39:53.466Z,101285.09
2018-04-06T06:42:22.215Z,101283.66
2018-04-06T06:44:51.081Z,101281.91
2018-04-06T06:47:20.171Z,101272.95
2018-04-06T06:49:48.933Z,101273.52
2018-04-06T06:52:17.740Z,101272.39
2018-04-06T06:54:46.507Z,101275.70
2018-04-06T06:57:15.224Z,101274.19
2018-04-06T06:59:45.321Z,101272.58
2018-04-06T07:02:14.293Z,101268.39
2018-04-06T07:04:43.691Z,101271.62
2018-04-06T07:07:13.044Z,101272.37
2018-04-06T07:09:42.118Z,101270.53
2018-04-06T07:12:10.859Z,101264.94
2018-04-06T07:14:40.366Z,101265.82
2018-04-06T07:17:09.310Z,101264.14
2018-04-06T07:19:38.126Z,101264.88
2018-04-06T07:22:07.043Z,101264.30
2018-04-06T07:24:35.925Z,101261.98
2018-04-06T07:27:04.745Z,101255.03
2018-04-06T07:29:33.840Z,101247.42
2018-04-06T07:32:03.201Z,101246.60
2018-04-06T07:34:31.946Z,101245.58
2018-04-06T07:37:01.290Z,101241.13
2018-04-06T07:39:30.159Z,101246.53
2018-04-06T07:41:59.599Z,101247.45
2018-04-06T07:44:28.358Z,101240.28
2018-04-06T07:46:57.120Z,101236.78
2018-04-06T07:49:26.331Z,101232.48
2018-04-06T07:51:55.034Z,101226.09
2018-04-06T07:54:23.726Z,101223.64
2018-04-06T07:56:54.227Z,101223.86
2018-04-06T07:59:22.990Z,101222.68
2018-04-06T08:01:53.472Z,101217.50
2018-04-06T08:04:22.220Z,101216.20
2018-04-06T08:06:51.231Z,101208.73
2018-04-06T08:09:19.978Z,101213.26
2018-04-06T08:11:48.755Z,101204.77
2018-04-06T08:14:17.781Z,101196.06
2018-04-06T08:16:46.582Z,101202.22
2018-04-06T08:19:15.311Z,101197.99
2018-04-06T08:21:45.007Z,101195.82
2018-04-06T08:24:14.160Z,101191.69
2018-04-06T08:26:42.927Z,101189.48
2018-04-06T08:29:11.638Z,101187.34
2018-04-06T08:31:41.356Z,101186.80
2018-04-06T08:34:10.270Z,101192.06
2018-04-06T08:36:39.161Z,101197.34
2018-04-06T08:39:08.467Z,101189.74
2018-04-06T08:41:37.478Z,101186.59
2018-04-06T08:44:06.593Z,101196.63
2018-04-06T08:46:35.562Z,101184.64
2018-04-06T08:49:04.514Z,101172.48
2018-04-06T08:51:33.387Z,101183.67
2018-04-06T08:54:03.265Z,101182.36
2018-04-06T08:56:32.127Z,101182.41
2018-04-06T08:59:01.171Z,101176.55
2018-04-06T09:01:30.106Z,101176.10
2018-04-06T09:03:59.073Z,101168.41
2018-04-06T09:06:28.302Z,101164.84
2018-04-06T09:08:57.302Z,101167.39
2018-04-06T09:11:26.213Z,101164.02
2018-04-06T09:13:55.599Z,101160.06
2018-04-06T09:16:24.646Z,101159.14
2018-04-06T09:18:54.385Z,101156.30
2018-04-06T09:21:23.596Z,101148.02
2018-04-06T09:23:52.693Z,101144.91
2018-04-06T09:26:21.661Z,101148.28
2018-04-06T09:28:50.673Z,101139.63
2018-04-06T09:31:19.624Z,101135.19
2018-04-06T09:33:48.974Z,101133.03
2018-04-06T09:36:18.370Z,101121.95
2018-04-06T09:38:48.349Z,101117.08
2018-04-06T09:41:18.443Z,101112.41
2018-04-06T09:43:48.717Z,101114.73
2018-04-06T09:46:18.453Z,101110.31
2018-04-06T09:48:49.379Z,101101.52
2018-04-06T09:51:18.997Z,101090.95
2018-04-06T09:53:48.758Z,101075.84
2018-04-06T09:56:18.858Z,101094.12
2018-04-06T09:58:48.190Z,101083.14
2018-04-06T10:01:17.232Z,101085.23
2018-04-06T10:03:46.429Z,101079.19
2018-04-06T10:06:15.796Z,101080.70
2018-04-06T10:08:45.956Z,101075.66
2018-04-06T10:11:15.726Z,101064.16
2018-04-06T10:13:45.185Z,101065.41
2018-04-06T10:16:15.197Z,101056.20
2018-04-06T10:18:45.098Z,101051.39
2018-04-06T10:21:14.685Z,101060.73
2018-04-06T10:23:44.141Z,101047.50
2018-04-06T10:26:14.136Z,101048.30
2018-04-06T10:28:43.943Z,101041.27
2018-04-06T10:31:13.738Z,101048.81
2018-04-06T10:33:43.239Z,101036.91
2018-04-06T10:36:12.705Z,101035.38
2018-04-06T10:38:42.253Z,101038.31
2018-04-06T10:41:11.654Z,101038.27
2018-04-06T10:43:40.654Z,101029.66
2018-04-06T10:46:10.736Z,101022.93
2018-04-06T10:48:40.386Z,101016.59
2018-04-06T10:51:10.171Z,101012.84
2018-04-06T10:53:40.269Z,101017.51
2018-04-06T10:56:10.007Z,101013.72
2018-04-06T10:58:39.994Z,101004.06
2018-04-06T11:01:09.723Z,101002.05
2018-04-06T11:03:39.606Z,100998.90
2018-04-06T11:06:09.049Z,101003.20
2018-04-06T11:08:39.010Z,100989.41
2018-04-06T11:11:08.640Z,100990.31
2018-04-06T11:13:38.698Z,100982.09
2018-04-06T11:16:07.776Z,100970.70
2018-04-06T11:18:37.197Z,100972.20
2018-04-06T11:21:07.259Z,100976.17
2018-04-06T11:23:37.214Z,100964.82
2018-04-06T11:26:06.966Z,100964.03
2018-04-06T11:28:37.231Z,100953.56
2018-04-06T11:31:07.005Z,100957.38
2018-04-06T11:33:37.346Z,100951.44
2018-04-06T11:36:07.075Z,100948.59
2018-04-06T11:38:36.820Z,100951.14
2018-04-06T11:41:06.550Z,100944.97
2018-04-06T11:43:35.950Z,100938.35
2018-04-06T11:46:05.992Z,100936.16
2018-04-06T11:48:35.745Z,100935.46
2018-04-06T11:51:05.298Z,100932.83
2018-04-06T11:53:35.119Z,100926.11
2018-04-06T11:56:06.431Z,100921.45
2018-04-06T11:58:35.950Z,100919.19
2018-04-06T12:01:05.001Z,100914.95
2018-04-06T12:03:34.207Z,100916.97
2018-04-06T12:06:04.524Z,100913.45
2018-04-06T12:08:33.392Z,100910.52
2018-04-06T12:11:02.692Z,100899.44
2018-04-06T12:13:31.586Z,100900.07
2018-04-06T12:16:00.484Z,100896.74
2018-04-06T12:18:29.385Z,100890.06
2018-04-06T12:20:58.359Z,100874.77
2018-04-06T12:23:27.574Z,100878.50
2018-04-06T12:25:56.569Z,100876.55
2018-04-06T12:28:25.565Z,100866.06
2018-04-06T12:30:54.925Z,100863.00
2018-04-06T12:33:23.831Z,100858.66
2018-04-06T12:35:52.920Z,100859.02
2018-04-06T12:38:22.117Z,100852.86
2018-04-06T12:40:51.036Z,100851.59
2018-04-06T12:43:19.933Z,100843.55
2018-04-06T12:45:49.137Z,100839.28
2018-04-06T12:48:18.032Z,100838.71
2018-04-06T12:50:46.965Z,100839.27
2018-04-06T12:53:16.238Z,100845.41
2018-04-06T12:55:45.142Z,100838.70
2018-04-06T12:58:14.099Z,100831.16
2018-04-06T13:00:43.079Z,100835.86
2018-04-06T13:03:12.103Z,100824.06
2018-04-06T13:05:41.502Z,100819.83
2018-04-06T13:08:10.474Z,100824.75
2018-04-06T13:10:39.397Z,100823.91
2018-04-06T13:13:08.651Z,100812.43
2018-04-06T13:15:37.789Z,100810.46
2018-04-06T13:18:06.962Z,100804.25
2018-04-06T13:20:36.519Z,100803.31
2018-04-06T13:23:06.225Z,100800.84
2018-04-06T13:25:36.079Z,100806.26
2018-04-06T13:28:06.973Z,100799.20
2018-04-06T13:30:36.795Z,100792.36
2018-04-06T13:33:06.650Z,100794.88
2018-04-06T13:35:36.204Z,100792.14
2018-04-06T13:38:06.426Z,100785.50
2018-04-06T13:40:36.087Z,100779.05
2018-04-06T13:43:05.571Z,100769.88
2018-04-06T13:45:35.548Z,100760.12
2018-04-06T13:48:06.727Z,100758.20
2018-04-06T13:50:36.351Z,100757.56
2018-04-06T13:53:06.077Z,100753.09
2018-04-06T13:55:36.087Z,100750.62
2018-04-06T13:58:07.033Z,100746.73
2018-04-06T14:00:36.966Z,100751.19
2018-04-06T14:03:06.705Z,100745.56
2018-04-06T14:05:36.247Z,100743.65
2018-04-06T14:08:06.547Z,100734.06
2018-04-06T14:10:36.348Z,100733.33
2018-04-06T14:13:06.221Z,100724.78
2018-04-06T14:15:36.006Z,100718.11
2018-04-06T14:18:06.395Z,100710.47
2018-04-06T14:20:36.267Z,100714.99
2018-04-06T14:23:06.408Z,100717.11
2018-04-06T14:25:36.488Z,100713.27
2018-04-06T14:28:07.118Z,100711.78
2018-04-06T14:30:37.435Z,100710.34
2018-04-06T14:33:07.176Z,100711.81
2018-04-06T14:35:36.967Z,100705.64
2018-04-06T14:38:07.393Z,100700.55
2018-04-06T14:40:36.959Z,100696.34
2018-04-06T14:43:06.902Z,100695.06
2018-04-06T14:45:36.643Z,100696.00
2018-04-06T14:48:06.986Z,100697.92
2018-04-06T14:50:36.448Z,100694.14
2018-04-06T14:53:06.305Z,100683.73
2018-04-06T14:55:36.196Z,100691.75
2018-04-06T14:58:07.843Z,100682.95
2018-04-06T15:00:37.490Z,100675.87
2018-04-06T15:03:07.282Z,100674.77
2018-04-06T15:05:37.474Z,100676.89
2018-04-06T15:08:07.315Z,100680.02
2018-04-06T15:10:37.190Z,100671.13
2018-04-06T15:13:07.244Z,100670.89
2018-04-06T15:15:36.606Z,100668.83
2018-04-06T15:18:06.369Z,100663.41
2018-04-06T15:20:36.532Z,100651.45
2018-04-06T15:23:05.934Z,100659.99
2018-04-06T15:25:35.773Z,100650.78
2018-04-06T15:28:07.098Z,100653.89
2018-04-06T15:30:36.686Z,100650.58
2018-04-06T15:33:06.852Z,100646.84
2018-04-06T15:35:36.574Z,100645.23
2018-04-06T15:38:07.884Z,100637.16
2018-04-06T15:40:38.070Z,100642.52
2018-04-06T15:43:08.803Z,100638.95
2018-04-06T15:45:39.034Z,100632.38
2018-04-06T15:48:08.922Z,100637.03
2018-04-06T15:50:38.712Z,100632.84
2018-04-06T15:53:08.158Z,100631.80
2018-04-06T15:55:38.541Z,100635.13
2018-04-06T15:58:08.176Z,100626.83
2018-04-06T16:00:38.109Z,100633.87
2018-04-06T16:03:07.905Z,100625.48
2018-04-06T16:05:37.697Z,100623.33
2018-04-06T16:08:07.584Z,100620.90
2018-04-06T16:10:37.046Z,100613.36
2018-04-06T16:13:06.904Z,100620.62
2018-04-06T16:15:37.299Z,100618.91
2018-04-06T16:18:07.195Z,100616.81
2018-04-06T16:20:37.289Z,100614.92
2018-04-06T16:23:07.218Z,100611.03
2018-04-06T16:25:36.581Z,100607.48
2018-04-06T16:28:06.764Z,100600.90
2018-04-06T16:30:36.726Z,100601.06
2018-04-06T16:33:06.087Z,100599.22
2018-04-06T16:35:35.698Z,100593.59
2018-04-06T16:41:38.192Z,100590.59
2018-04-06T16:44:08.753Z,100579.29
2018-04-06T16:46:39.298Z,100581.89
2018-04-06T16:49:09.037Z,100579.23
2018-04-06T16:51:39.348Z,100589.78
2018-04-06T16:54:08.415Z,100583.82
2018-04-06T16:56:37.949Z,100587.87
2018-04-06T16:59:07.848Z,100596.26
2018-04-06T17:01:38.644Z,100596.51
2018-04-06T17:04:08.342Z,100589.70
2018-04-06T17:06:38.566Z,100594.91
2018-04-06T17:09:08.232Z,100593.36
2018-04-06T17:11:38.049Z,100594.28
2018-04-06T17:14:07.642Z,100591.16
2018-04-06T17:16:37.577Z,100586.00
2018-04-06T17:19:07.638Z,100588.95
2018-04-06T17:21:38.132Z,100588.48
2018-04-06T17:24:08.023Z,100587.83
2018-04-06T17:26:38.451Z,100579.20
2018-04-06T17:29:08.371Z,100577.80
2018-04-06T17:31:38.147Z,100582.91
2018-04-06T17:34:08.140Z,100580.07
2018-04-06T17:36:37.762Z,100575.27
2018-04-06T17:39:08.135Z,100586.69
2018-04-06T17:41:38.786Z,100581.98
2018-04-06T17:44:08.220Z,100583.30
2018-04-06T17:46:38.532Z,100580.48
2018-04-06T17:49:08.676Z,100583.77
2018-04-06T17:51:38.295Z,100590.13
2018-04-06T17:54:07.841Z,100594.23
2018-04-06T17:56:37.236Z,100594.22
2018-04-06T17:59:06.206Z,100588.31
2018-04-06T18:01:36.533Z,100595.90
2018-04-06T18:04:07.182Z,100595.47
2018-04-06T18:06:37.124Z,100588.52
2018-04-06T18:09:07.404Z,100591.94
2018-04-06T18:11:37.314Z,100594.05
2018-04-06T18:14:06.914Z,100600.29
2018-04-06T18:16:37.276Z,100602.83
2018-04-06T18:19:06.835Z,100596.98
2018-04-06T18:21:36.650Z,100603.33
2018-04-06T18:24:08.069Z,100600.78
2018-04-06T18:26:37.925Z,100595.66
2018-04-06T18:29:07.840Z,100597.34
2018-04-06T18:31:37.744Z,100602.19
2018-04-06T18:34:07.384Z,100608.41
2018-04-06T18:36:36.977Z,100612.81
2018-04-06T18:39:07.591Z,100601.34
2018-04-06T18:41:37.964Z,100610.22
2018-04-06T18:44:08.465Z,100608.77
2018-04-06T18:48:07.041Z,100611.47
2018-04-06T18:50:37.172Z,100606.00
2018-04-06T18:53:06.614Z,100606.97
2018-04-06T18:55:36.383Z,100606.34
2018-04-06T18:58:07.213Z,100605.66
2018-04-06T19:00:37.242Z,100605.27
2018-04-06T19:03:06.226Z,100607.48
2018-04-06T19:05:35.526Z,100604.15
2018-04-06T19:08:06.891Z,100600.55
2018-04-06T19:10:36.464Z,100607.30
2018-04-06T19:13:07.794Z,100602.72
2018-04-06T19:15:37.534Z,100605.48
2018-04-06T19:18:07.224Z,100603.05
2018-04-06T19:20:36.515Z,100595.56
2018-04-06T19:23:05.765Z,100595.25
2018-04-06T19:25:35.953Z,100590.58
2018-04-06T19:28:06.391Z,100590.83
2018-04-06T19:30:36.050Z,100589.72
2018-04-06T19:33:06.603Z,100580.59
2018-04-06T19:35:36.537Z,100581.52
2018-04-06T19:38:06.955Z,100582.20
2018-04-06T19:40:37.347Z,100587.36
2018-04-06T19:43:06.814Z,100581.48
2018-04-06T19:45:35.719Z,100582.36
2018-04-06T19:48:05.670Z,100585.48
2018-04-06T19:50:34.824Z,100584.59
2018-04-06T19:53:04.568Z,100584.06
2018-04-06T19:55:34.700Z,100582.90
2018-04-06T19:58:04.968Z,100581.00
2018-04-06T20:00:34.366Z,100577.91
2018-04-06T20:03:05.304Z,100584.22
2018-04-06T20:05:35.418Z,100584.11
2018-04-06T20:08:07.768Z,100583.19
2018-04-06T20:10:37.901Z,100579.86
2018-04-06T20:13:07.546Z,100581.00
2018-04-06T20:15:38.171Z,100575.72
2018-04-06T20:18:07.314Z,100578.22
2018-04-06T20:20:37.211Z,100568.11
2018-04-06T20:23:07.141Z,100572.08
2018-04-06T20:25:36.871Z,100563.56
2018-04-06T20:28:07.401Z,100557.76
2018-04-06T20:30:36.926Z,100557.48
2018-04-06T20:33:06.673Z,100563.72
2018-04-06T20:35:37.219Z,100555.43
2018-04-06T20:38:07.753Z,100549.09
2018-04-06T20:40:37.760Z,100549.24
2018-04-06T20:43:06.997Z,100549.02
2018-04-06T20:45:36.808Z,100546.05
2018-04-06T20:48:07.006Z,100543.09
2018-04-06T20:50:36.642Z,100540.88
2018-04-06T20:53:06.392Z,100534.31
2018-04-06T20:55:36.937Z,100536.38
2018-04-06T20:58:06.930Z,100531.82
2018-04-06T21:00:36.689Z,100537.84
2018-04-06T21:03:06.381Z,100536.91
2018-04-06T21:05:35.571Z,100525.05
2018-04-06T21:08:05.467Z,100537.49
2018-04-06T21:10:35.714Z,100524.94
2018-04-06T21:13:05.943Z,100525.43
2018-04-06T21:15:35.585Z,100518.86
2018-04-06T21:18:05.942Z,100513.69
2018-04-06T21:20:35.654Z,100521.39
2018-04-06T21:23:05.211Z,100510.57
2018-04-06T21:25:35.175Z,100516.22
2018-04-06T21:28:06.030Z,100504.43
2018-04-06T21:30:35.614Z,100508.90
2018-04-06T21:33:05.778Z,100508.90
2018-04-06T21:35:35.661Z,100505.67
2018-04-06T21:38:07.324Z,100506.75
2018-04-06T21:40:38.080Z,100506.09
2018-04-06T21:43:07.184Z,100504.18
2018-04-06T21:45:36.788Z,100502.08
2018-04-06T21:48:07.650Z,100504.68
2018-04-06T21:50:37.648Z,100503.52
2018-04-06T21:53:07.512Z,100503.81
2018-04-06T21:55:37.880Z,100502.02
2018-04-06T21:58:07.694Z,100509.00
2018-04-06T22:00:37.528Z,100508.71
2018-04-06T22:03:07.099Z,100503.42
2018-04-06T22:05:36.981Z,100501.29
2018-04-06T22:08:08.961Z,100502.26
2018-04-06T22:10:38.614Z,100498.23
2018-04-06T22:13:08.125Z,100491.12
2018-04-06T22:15:38.447Z,100491.34
2018-04-06T22:18:07.977Z,100487.30
2018-04-06T22:20:37.757Z,100482.13
2018-04-06T22:23:07.101Z,100483.56
2018-04-06T22:25:36.819Z,100484.77
2018-04-06T22:28:06.895Z,100478.70
2018-04-06T22:30:37.896Z,100485.39
2018-04-06T22:33:07.266Z,100473.77
2018-04-06T22:35:36.879Z,100477.26
2018-04-06T22:38:06.781Z,100476.98
2018-04-06T22:40:36.255Z,100477.83
2018-04-06T22:43:06.053Z,100476.20
2018-04-06T22:45:35.450Z,100472.73
2018-04-06T22:48:05.604Z,100478.92
2018-04-06T22:50:35.747Z,100473.41
2018-04-06T22:53:05.053Z,100476.55
2018-04-06T22:55:34.527Z,100477.91
2018-04-06T22:58:06.292Z,100480.92
2018-04-06T23:00:35.561Z,100478.20
2018-04-06T23:03:05.148Z,100478.31
2018-04-06T23:05:34.382Z,100477.56
2018-04-06T23:08:05.350Z,100471.84
2018-04-06T23:10:37.318Z,100481.05
2018-04-06T23:13:06.721Z,100480.55
2018-04-06T23:15:36.604Z,100478.09
2018-04-06T23:18:06.791Z,100473.34
2018-04-06T23:20:36.720Z,100469.64
2018-04-06T23:23:06.142Z,100476.59
2018-04-06T23:25:36.043Z,100474.95
2018-04-06T23:28:07.365Z,100473.63
2018-04-06T23:30:36.769Z,100467.75
2018-04-06T23:33:06.274Z,100468.79
2018-04-06T23:35:35.475Z,100466.50
2018-04-06T23:38:06.101Z,100464.66
2018-04-06T23:40:35.325Z,100459.88
2018-04-06T23:43:04.510Z,100462.52
2018-04-06T23:45:33.489Z,100455.16
2018-04-06T23:48:04.239Z,100446.54
2018-04-06T23:50:33.253Z,100449.72
2018-04-06T23:53:03.132Z,100449.14
2018-04-06T23:55:32.082Z,100443.55
2018-04-06T23:58:01.146Z,100446.39
